createdAt,value
2019-05-06T00:11:59.334Z,19.40
2019-05-06T00:25:06.490Z,19.50
2019-05-06T00:38:13.956Z,19.40
2019-05-06T00:51:37.336Z,19.40
2019-05-06T01:05:00.120Z,19.40
2019-05-06T01:18:24.501Z,19.40
2019-05-06T01:44:47.332Z,19.40
2019-05-06T01:57:54.658Z,19.40
2019-05-06T02:11:03.988Z,19.40
2019-05-06T02:24:08.975Z,19.40
2019-05-06T02:37:16.194Z,19.40
2019-05-06T02:50:23.977Z,19.40
2019-05-06T03:03:47.213Z,19.40
2019-05-06T03:17:09.966Z,19.40
2019-05-06T03:30:36.028Z,19.40
2019-05-06T03:43:55.590Z,19.30
2019-05-06T03:57:18.400Z,19.30
2019-05-06T04:10:43.612Z,19.30
2019-05-06T04:24:04.414Z,19.30
2019-05-06T04:37:26.881Z,19.30
2019-05-06T04:50:49.652Z,19.30
2019-05-06T05:04:22.833Z,19.30
2019-05-06T05:17:35.325Z,19.30
2019-05-06T05:30:58.109Z,19.30
2019-05-06T05:57:22.631Z,19.30
2019-05-06T06:10:29.785Z,19.90
2019-05-06T06:23:36.945Z,20.00
2019-05-06T06:36:44.082Z,19.90
2019-05-06T06:49:53.261Z,19.80
2019-05-06T07:02:58.499Z,19.60
2019-05-06T07:16:23.551Z,19.40
2019-05-06T07:29:47.996Z,19.50
2019-05-06T07:43:08.012Z,19.40
2019-05-06T07:56:32.241Z,19.40
2019-05-06T08:09:53.618Z,19.40
2019-05-06T08:23:16.415Z,19.40
2019-05-06T08:36:39.246Z,19.40
2019-05-06T08:50:02.464Z,19.40
2019-05-06T09:03:24.900Z,19.50
2019-05-06T09:16:50.367Z,19.60
2019-05-06T09:30:10.507Z,19.00
2019-05-06T09:43:33.350Z,19.30
2019-05-06T09:56:56.118Z,19.30
2019-05-06T10:10:18.966Z,19.40
2019-05-06T10:23:42.339Z,19.40
2019-05-06T10:37:11.492Z,19.30
2019-05-06T10:50:27.398Z,19.30
2019-05-06T11:03:52.392Z,19.30
2019-05-06T11:17:13.072Z,19.30
2019-05-06T11:30:35.888Z,19.30
2019-05-06T11:43:58.699Z,19.30
2019-05-06T11:57:23.093Z,19.50
2019-05-06T12:10:44.290Z,19.40
2019-05-06T12:24:07.135Z,19.30
2019-05-06T12:37:30.003Z,19.40
2019-05-06T12:50:52.802Z,19.40
2019-05-06T13:17:17.265Z,19.90
2019-05-06T13:30:24.467Z,19.60
2019-05-06T13:43:32.776Z,19.80
2019-05-06T13:56:38.978Z,19.80
2019-05-06T14:09:46.185Z,19.80
2019-05-06T14:22:53.371Z,19.80
2019-05-06T14:36:16.997Z,19.80
2019-05-06T14:49:39.801Z,19.70
2019-05-06T15:03:02.640Z,19.70
2019-05-06T15:16:25.395Z,19.70
2019-05-06T15:29:48.855Z,19.70
2019-05-06T15:43:12.679Z,19.70
2019-05-06T15:56:33.838Z,19.60
2019-05-06T16:09:56.700Z,19.60
2019-05-06T16:23:19.495Z,19.50
2019-05-06T16:36:43.203Z,19.50
2019-05-06T16:50:05.140Z,19.50
2019-05-06T17:03:27.976Z,19.60
2019-05-06T17:16:52.726Z,19.50
2019-05-06T17:43:15.206Z,19.60
2019-05-06T17:56:22.495Z,19.60
2019-05-06T18:09:29.743Z,19.60
2019-05-06T18:22:37.562Z,19.60
2019-05-06T19:01:54.068Z,19.50
2019-05-06T19:15:03.231Z,19.50
2019-05-06T19:28:08.726Z,19.50
2019-05-06T19:41:16.063Z,19.50
2019-05-06T19:54:23.379Z,19.50
2019-05-06T20:07:47.223Z,19.50
2019-05-06T20:21:09.948Z,19.50
2019-05-06T20:34:32.794Z,19.50
2019-05-06T20:47:55.723Z,19.50
2019-05-06T21:01:18.427Z,19.50
2019-05-06T21:14:42.044Z,19.50
2019-05-06T21:28:04.052Z,19.50
2019-05-06T21:41:26.882Z,19.50
2019-05-06T21:54:49.729Z,19.50
2019-05-06T22:08:12.817Z,19.50
2019-05-06T22:21:35.348Z,19.50
2019-05-06T22:34:58.138Z,17.90
2019-05-06T22:48:22.155Z,18.20
2019-05-06T23:01:43.769Z,19.10
2019-05-06T23:28:41.603Z,19.40
2019-05-06T23:41:48.774Z,19.40
2019-05-06T23:54:55.960Z,19.40
